sensor_id;sensor_type;location;lat;lon;timestamp;P1;durP1;ratioP1;P2;durP2;ratioP2
58553;SDS011;48119;53.218;6.576;2023-07-28T00:00:22;21.15;;;12.52;;
58553;SDS011;48119;53.218;6.576;2023-07-28T00:02:48;25.98;;;11.98;;
58553;SDS011;48119;53.218;6.576;2023-07-28T00:05:14;23.02;;;13.20;;
58553;SDS011;48119;53.218;6.576;2023-07-28T00:07:39;24.83;;;11.95;;
58553;SDS011;48119;53.218;6.576;2023-07-28T00:10:05;29.83;;;13.63;;
58553;SDS011;48119;53.218;6.576;2023-07-28T00:12:31;23.75;;;12.63;;
58553;SDS011;48119;53.218;6.576;2023-07-28T00:14:57;26.38;;;13.52;;
58553;SDS011;48119;53.218;6.576;2023-07-28T00:17:24;25.98;;;15.20;;
58553;SDS011;48119;53.218;6.576;2023-07-28T00:19:49;32.88;;;15.93;;
58553;SDS011;48119;53.218;6.576;2023-07-28T00:22:15;32.80;;;17.13;;
58553;SDS011;48119;53.218;6.576;2023-07-28T00:24:41;29.42;;;15.68;;
58553;SDS011;48119;53.218;6.576;2023-07-28T00:27:06;30.35;;;15.40;;
58553;SDS011;48119;53.218;6.576;2023-07-28T00:29:32;29.08;;;15.57;;
58553;SDS011;48119;53.218;6.576;2023-07-28T00:31:58;32.70;;;16.40;;
58553;SDS011;48119;53.218;6.576;2023-07-28T00:34:24;25.75;;;13.65;;
58553;SDS011;48119;53.218;6.576;2023-07-28T00:36:49;23.27;;;13.27;;
58553;SDS011;48119;53.218;6.576;2023-07-28T00:39:15;30.15;;;13.00;;
58553;SDS011;48119;53.218;6.576;2023-07-28T00:41:41;23.50;;;12.68;;
58553;SDS011;48119;53.218;6.576;2023-07-28T00:44:06;28.50;;;14.38;;
58553;SDS011;48119;53.218;6.576;2023-07-28T00:46:32;26.40;;;14.60;;
58553;SDS011;48119;53.218;6.576;2023-07-28T00:48:58;27.60;;;15.02;;
58553;SDS011;48119;53.218;6.576;2023-07-28T00:51:26;22.38;;;14.63;;
58553;SDS011;48119;53.218;6.576;2023-07-28T00:53:52;28.35;;;15.57;;
58553;SDS011;48119;53.218;6.576;2023-07-28T00:56:18;25.48;;;14.50;;
58553;SDS011;48119;53.218;6.576;2023-07-28T00:58:45;25.40;;;12.60;;
58553;SDS011;48119;53.218;6.576;2023-07-28T01:01:15;22.60;;;12.30;;
58553;SDS011;48119;53.218;6.576;2023-07-28T01:03:40;28.05;;;14.65;;
58553;SDS011;48119;53.218;6.576;2023-07-28T01:08:58;24.02;;;13.38;;
58553;SDS011;48119;53.218;6.576;2023-07-28T01:11:28;26.50;;;13.80;;
58553;SDS011;48119;53.218;6.576;2023-07-28T01:13:54;27.02;;;13.15;;
58553;SDS011;48119;53.218;6.576;2023-07-28T01:16:20;26.85;;;14.40;;
58553;SDS011;48119;53.218;6.576;2023-07-28T01:18:46;29.35;;;14.95;;
58553;SDS011;48119;53.218;6.576;2023-07-28T01:21:22;23.80;;;13.68;;
58553;SDS011;48119;53.218;6.576;2023-07-28T01:23:55;26.92;;;14.10;;
58553;SDS011;48119;53.218;6.576;2023-07-28T01:26:38;25.23;;;15.13;;
58553;SDS011;48119;53.218;6.576;2023-07-28T01:29:05;27.92;;;16.40;;
58553;SDS011;48119;53.218;6.576;2023-07-28T01:31:31;35.00;;;16.88;;
58553;SDS011;48119;53.218;6.576;2023-07-28T01:33:57;37.67;;;17.63;;
58553;SDS011;48119;53.218;6.576;2023-07-28T01:36:23;28.45;;;16.92;;
58553;SDS011;48119;53.218;6.576;2023-07-28T01:38:49;34.58;;;18.38;;
58553;SDS011;48119;53.218;6.576;2023-07-28T01:41:15;31.30;;;16.83;;
58553;SDS011;48119;53.218;6.576;2023-07-28T01:43:41;31.27;;;15.35;;
58553;SDS011;48119;53.218;6.576;2023-07-28T01:46:07;27.92;;;16.63;;
58553;SDS011;48119;53.218;6.576;2023-07-28T01:48:33;25.95;;;14.95;;
58553;SDS011;48119;53.218;6.576;2023-07-28T01:50:59;26.30;;;14.45;;
58553;SDS011;48119;53.218;6.576;2023-07-28T01:53:24;22.35;;;11.95;;
58553;SDS011;48119;53.218;6.576;2023-07-28T01:55:50;24.75;;;13.10;;
58553;SDS011;48119;53.218;6.576;2023-07-28T01:58:16;18.42;;;12.95;;
58553;SDS011;48119;53.218;6.576;2023-07-28T02:00:42;19.05;;;11.95;;
58553;SDS011;48119;53.218;6.576;2023-07-28T02:03:07;23.17;;;12.10;;
58553;SDS011;48119;53.218;6.576;2023-07-28T02:05:33;19.10;;;11.30;;
58553;SDS011;48119;53.218;6.576;2023-07-28T02:07:59;20.80;;;10.68;;
58553;SDS011;48119;53.218;6.576;2023-07-28T02:10:26;15.98;;;10.25;;
58553;SDS011;48119;53.218;6.576;2023-07-28T02:12:52;16.63;;;10.23;;
58553;SDS011;48119;53.218;6.576;2023-07-28T02:15:18;15.65;;;10.18;;
58553;SDS011;48119;53.218;6.576;2023-07-28T02:17:43;15.45;;;10.43;;
58553;SDS011;48119;53.218;6.576;2023-07-28T02:20:09;15.05;;;11.07;;
58553;SDS011;48119;53.218;6.576;2023-07-28T02:22:40;13.18;;;8.60;;
58553;SDS011;48119;53.218;6.576;2023-07-28T02:25:09;15.85;;;9.07;;
58553;SDS011;48119;53.218;6.576;2023-07-28T02:27:36;15.73;;;8.80;;
58553;SDS011;48119;53.218;6.576;2023-07-28T02:30:03;19.33;;;12.13;;
58553;SDS011;48119;53.218;6.576;2023-07-28T02:32:29;16.15;;;10.75;;
58553;SDS011;48119;53.218;6.576;2023-07-28T02:34:55;15.95;;;10.35;;
58553;SDS011;48119;53.218;6.576;2023-07-28T02:37:21;21.27;;;12.45;;
58553;SDS011;48119;53.218;6.576;2023-07-28T02:39:47;22.92;;;12.85;;
58553;SDS011;48119;53.218;6.576;2023-07-28T02:42:13;24.95;;;13.45;;
58553;SDS011;48119;53.218;6.576;2023-07-28T02:44:38;28.50;;;15.27;;
58553;SDS011;48119;53.218;6.576;2023-07-28T02:47:04;35.30;;;15.35;;
58553;SDS011;48119;53.218;6.576;2023-07-28T02:49:30;28.48;;;15.40;;
58553;SDS011;48119;53.218;6.576;2023-07-28T02:51:56;23.77;;;13.38;;
58553;SDS011;48119;53.218;6.576;2023-07-28T02:54:22;29.88;;;14.63;;
58553;SDS011;48119;53.218;6.576;2023-07-28T02:56:50;27.08;;;14.90;;
58553;SDS011;48119;53.218;6.576;2023-07-28T02:59:16;26.88;;;14.85;;
58553;SDS011;48119;53.218;6.576;2023-07-28T03:01:42;31.42;;;14.48;;
58553;SDS011;48119;53.218;6.576;2023-07-28T03:04:08;27.02;;;15.20;;
58553;SDS011;48119;53.218;6.576;2023-07-28T03:06:34;23.70;;;14.07;;
58553;SDS011;48119;53.218;6.576;2023-07-28T03:08:59;26.08;;;14.23;;
58553;SDS011;48119;53.218;6.576;2023-07-28T03:11:25;24.45;;;13.93;;
58553;SDS011;48119;53.218;6.576;2023-07-28T03:13:51;27.75;;;14.52;;
58553;SDS011;48119;53.218;6.576;2023-07-28T03:16:17;29.48;;;14.50;;
58553;SDS011;48119;53.218;6.576;2023-07-28T03:18:42;26.23;;;13.02;;
58553;SDS011;48119;53.218;6.576;2023-07-28T03:21:08;27.33;;;13.40;;
58553;SDS011;48119;53.218;6.576;2023-07-28T03:23:35;30.83;;;14.18;;
58553;SDS011;48119;53.218;6.576;2023-07-28T03:26:01;29.92;;;13.95;;
58553;SDS011;48119;53.218;6.576;2023-07-28T03:28:27;32.47;;;12.95;;
58553;SDS011;48119;53.218;6.576;2023-07-28T03:30:53;25.98;;;12.73;;
58553;SDS011;48119;53.218;6.576;2023-07-28T03:33:18;24.33;;;12.32;;
58553;SDS011;48119;53.218;6.576;2023-07-28T03:35:44;20.73;;;11.23;;
58553;SDS011;48119;53.218;6.576;2023-07-28T03:38:10;30.02;;;13.02;;
58553;SDS011;48119;53.218;6.576;2023-07-28T03:40:36;24.15;;;11.65;;
58553;SDS011;48119;53.218;6.576;2023-07-28T03:43:02;20.05;;;10.52;;
58553;SDS011;48119;53.218;6.576;2023-07-28T03:45:28;21.25;;;11.68;;
58553;SDS011;48119;53.218;6.576;2023-07-28T03:47:54;18.45;;;9.52;;
58553;SDS011;48119;53.218;6.576;2023-07-28T03:50:20;24.55;;;11.20;;
58553;SDS011;48119;53.218;6.576;2023-07-28T03:52:45;24.23;;;10.85;;
58553;SDS011;48119;53.218;6.576;2023-07-28T03:55:11;18.23;;;9.05;;
58553;SDS011;48119;53.218;6.576;2023-07-28T03:57:37;26.08;;;11.38;;
58553;SDS011;48119;53.218;6.576;2023-07-28T04:00:03;26.55;;;10.57;;
58553;SDS011;48119;53.218;6.576;2023-07-28T04:02:29;20.10;;;9.73;;
58553;SDS011;48119;53.218;6.576;2023-07-28T04:04:56;20.52;;;9.88;;
58553;SDS011;48119;53.218;6.576;2023-07-28T04:07:22;27.92;;;9.38;;
58553;SDS011;48119;53.218;6.576;2023-07-28T04:09:48;17.63;;;8.27;;
58553;SDS011;48119;53.218;6.576;2023-07-28T04:12:13;23.58;;;9.02;;
58553;SDS011;48119;53.218;6.576;2023-07-28T04:14:39;17.15;;;8.70;;
58553;SDS011;48119;53.218;6.576;2023-07-28T04:17:09;20.58;;;8.20;;
58553;SDS011;48119;53.218;6.576;2023-07-28T04:19:37;20.48;;;8.70;;
58553;SDS011;48119;53.218;6.576;2023-07-28T04:22:03;22.85;;;8.82;;
58553;SDS011;48119;53.218;6.576;2023-07-28T04:24:29;20.45;;;9.05;;
58553;SDS011;48119;53.218;6.576;2023-07-28T04:26:55;21.77;;;9.05;;
58553;SDS011;48119;53.218;6.576;2023-07-28T04:29:23;18.88;;;9.25;;
58553;SDS011;48119;53.218;6.576;2023-07-28T04:31:50;21.30;;;7.93;;
58553;SDS011;48119;53.218;6.576;2023-07-28T04:34:15;21.95;;;8.82;;
58553;SDS011;48119;53.218;6.576;2023-07-28T04:36:41;17.75;;;8.38;;
58553;SDS011;48119;53.218;6.576;2023-07-28T04:39:07;16.42;;;8.52;;
58553;SDS011;48119;53.218;6.576;2023-07-28T04:41:32;16.27;;;8.00;;
58553;SDS011;48119;53.218;6.576;2023-07-28T04:43:58;19.58;;;9.23;;
58553;SDS011;48119;53.218;6.576;2023-07-28T04:46:24;16.25;;;8.07;;
58553;SDS011;48119;53.218;6.576;2023-07-28T04:48:50;16.60;;;7.97;;
58553;SDS011;48119;53.218;6.576;2023-07-28T04:51:15;14.80;;;8.18;;
58553;SDS011;48119;53.218;6.576;2023-07-28T04:53:41;19.17;;;7.88;;
58553;SDS011;48119;53.218;6.576;2023-07-28T04:56:07;17.52;;;8.40;;
58553;SDS011;48119;53.218;6.576;2023-07-28T04:58:33;16.33;;;8.00;;
58553;SDS011;48119;53.218;6.576;2023-07-28T05:00:59;15.95;;;7.80;;
58553;SDS011;48119;53.218;6.576;2023-07-28T05:03:24;14.75;;;8.02;;
58553;SDS011;48119;53.218;6.576;2023-07-28T05:05:50;16.25;;;8.77;;
58553;SDS011;48119;53.218;6.576;2023-07-28T05:08:16;14.77;;;8.75;;
58553;SDS011;48119;53.218;6.576;2023-07-28T05:10:42;17.48;;;8.52;;
58553;SDS011;48119;53.218;6.576;2023-07-28T05:13:08;16.17;;;8.15;;
58553;SDS011;48119;53.218;6.576;2023-07-28T05:15:34;18.15;;;7.97;;
58553;SDS011;48119;53.218;6.576;2023-07-28T05:17:59;13.10;;;7.15;;
58553;SDS011;48119;53.218;6.576;2023-07-28T05:20:25;22.08;;;7.55;;
58553;SDS011;48119;53.218;6.576;2023-07-28T05:22:51;15.85;;;7.20;;
58553;SDS011;48119;53.218;6.576;2023-07-28T05:25:17;12.38;;;6.55;;
58553;SDS011;48119;53.218;6.576;2023-07-28T05:27:42;12.70;;;6.72;;
58553;SDS011;48119;53.218;6.576;2023-07-28T05:30:08;15.50;;;7.63;;
58553;SDS011;48119;53.218;6.576;2023-07-28T05:32:37;11.00;;;6.60;;
58553;SDS011;48119;53.218;6.576;2023-07-28T05:35:03;11.07;;;6.93;;
58553;SDS011;48119;53.218;6.576;2023-07-28T05:37:32;11.82;;;6.00;;
58553;SDS011;48119;53.218;6.576;2023-07-28T05:39:57;12.15;;;6.60;;
58553;SDS011;48119;53.218;6.576;2023-07-28T05:42:23;15.10;;;7.03;;
58553;SDS011;48119;53.218;6.576;2023-07-28T05:44:49;14.70;;;6.15;;
58553;SDS011;48119;53.218;6.576;2023-07-28T05:47:17;9.82;;;5.82;;
58553;SDS011;48119;53.218;6.576;2023-07-28T05:49:43;14.45;;;7.45;;
58553;SDS011;48119;53.218;6.576;2023-07-28T05:52:08;12.80;;;7.30;;
58553;SDS011;48119;53.218;6.576;2023-07-28T05:54:37;17.40;;;8.02;;
58553;SDS011;48119;53.218;6.576;2023-07-28T05:57:03;10.63;;;5.93;;
58553;SDS011;48119;53.218;6.576;2023-07-28T05:59:29;13.38;;;6.32;;
58553;SDS011;48119;53.218;6.576;2023-07-28T06:01:54;14.77;;;6.88;;
58553;SDS011;48119;53.218;6.576;2023-07-28T06:04:20;14.48;;;6.20;;
58553;SDS011;48119;53.218;6.576;2023-07-28T06:06:47;11.98;;;6.40;;
58553;SDS011;48119;53.218;6.576;2023-07-28T06:09:12;13.70;;;6.82;;
58553;SDS011;48119;53.218;6.576;2023-07-28T06:11:38;11.80;;;6.88;;
58553;SDS011;48119;53.218;6.576;2023-07-28T06:14:04;13.38;;;6.55;;
58553;SDS011;48119;53.218;6.576;2023-07-28T06:16:30;12.57;;;7.05;;
58553;SDS011;48119;53.218;6.576;2023-07-28T06:18:56;13.48;;;8.07;;
58553;SDS011;48119;53.218;6.576;2023-07-28T06:21:22;11.68;;;7.32;;
58553;SDS011;48119;53.218;6.576;2023-07-28T06:23:48;12.85;;;7.10;;
58553;SDS011;48119;53.218;6.576;2023-07-28T06:26:13;14.32;;;8.20;;
58553;SDS011;48119;53.218;6.576;2023-07-28T06:28:39;12.73;;;7.22;;
58553;SDS011;48119;53.218;6.576;2023-07-28T06:31:05;11.57;;;7.50;;
58553;SDS011;48119;53.218;6.576;2023-07-28T06:33:31;11.02;;;7.38;;
58553;SDS011;48119;53.218;6.576;2023-07-28T06:35:57;11.60;;;7.75;;
58553;SDS011;48119;53.218;6.576;2023-07-28T06:38:23;15.23;;;7.25;;
58553;SDS011;48119;53.218;6.576;2023-07-28T06:40:49;7.85;;;7.05;;
58553;SDS011;48119;53.218;6.576;2023-07-28T06:43:14;11.27;;;6.95;;
58553;SDS011;48119;53.218;6.576;2023-07-28T06:45:41;9.95;;;7.00;;
58553;SDS011;48119;53.218;6.576;2023-07-28T06:48:07;9.95;;;7.22;;
58553;SDS011;48119;53.218;6.576;2023-07-28T06:50:33;11.48;;;7.80;;
58553;SDS011;48119;53.218;6.576;2023-07-28T06:52:59;11.68;;;8.15;;
58553;SDS011;48119;53.218;6.576;2023-07-28T06:55:25;8.75;;;6.35;;
58553;SDS011;48119;53.218;6.576;2023-07-28T06:57:50;10.30;;;7.97;;
58553;SDS011;48119;53.218;6.576;2023-07-28T07:00:19;9.10;;;7.10;;
58553;SDS011;48119;53.218;6.576;2023-07-28T07:02:53;10.70;;;7.00;;
58553;SDS011;48119;53.218;6.576;2023-07-28T07:05:21;9.18;;;6.30;;
58553;SDS011;48119;53.218;6.576;2023-07-28T07:07:48;11.25;;;6.63;;
58553;SDS011;48119;53.218;6.576;2023-07-28T07:10:17;9.95;;;6.85;;
58553;SDS011;48119;53.218;6.576;2023-07-28T07:12:43;10.10;;;6.63;;
58553;SDS011;48119;53.218;6.576;2023-07-28T07:15:09;9.52;;;6.25;;
58553;SDS011;48119;53.218;6.576;2023-07-28T07:17:37;7.65;;;6.00;;
58553;SDS011;48119;53.218;6.576;2023-07-28T07:20:03;7.80;;;6.47;;
58553;SDS011;48119;53.218;6.576;2023-07-28T07:22:30;7.40;;;6.30;;
58553;SDS011;48119;53.218;6.576;2023-07-28T07:24:56;9.25;;;6.43;;
58553;SDS011;48119;53.218;6.576;2023-07-28T07:27:23;8.30;;;5.70;;
58553;SDS011;48119;53.218;6.576;2023-07-28T07:29:50;7.20;;;5.55;;
58553;SDS011;48119;53.218;6.576;2023-07-28T07:32:16;7.80;;;5.85;;
58553;SDS011;48119;53.218;6.576;2023-07-28T07:34:42;8.15;;;5.32;;
58553;SDS011;48119;53.218;6.576;2023-07-28T07:37:08;7.65;;;6.05;;
58553;SDS011;48119;53.218;6.576;2023-07-28T07:39:34;6.70;;;5.80;;
58553;SDS011;48119;53.218;6.576;2023-07-28T07:42:01;8.95;;;6.47;;
58553;SDS011;48119;53.218;6.576;2023-07-28T07:44:27;6.93;;;5.75;;
58553;SDS011;48119;53.218;6.576;2023-07-28T07:46:58;7.78;;;6.25;;
58553;SDS011;48119;53.218;6.576;2023-07-28T07:49:25;9.13;;;6.90;;
58553;SDS011;48119;53.218;6.576;2023-07-28T07:51:51;8.48;;;6.25;;
58553;SDS011;48119;53.218;6.576;2023-07-28T07:54:17;7.85;;;6.00;;
58553;SDS011;48119;53.218;6.576;2023-07-28T07:56:43;6.97;;;6.28;;
58553;SDS011;48119;53.218;6.576;2023-07-28T07:59:11;7.22;;;5.57;;
58553;SDS011;48119;53.218;6.576;2023-07-28T08:01:37;7.30;;;5.57;;
58553;SDS011;48119;53.218;6.576;2023-07-28T08:04:03;6.03;;;5.40;;
58553;SDS011;48119;53.218;6.576;2023-07-28T08:06:29;7.15;;;5.60;;
58553;SDS011;48119;53.218;6.576;2023-07-28T08:08:55;8.07;;;6.30;;
58553;SDS011;48119;53.218;6.576;2023-07-28T08:11:22;9.57;;;6.88;;
58553;SDS011;48119;53.218;6.576;2023-07-28T08:13:47;8.23;;;6.00;;
58553;SDS011;48119;53.218;6.576;2023-07-28T08:16:13;6.85;;;5.95;;
58553;SDS011;48119;53.218;6.576;2023-07-28T08:18:39;6.30;;;5.70;;
58553;SDS011;48119;53.218;6.576;2023-07-28T08:21:05;7.25;;;5.85;;
58553;SDS011;48119;53.218;6.576;2023-07-28T08:23:31;7.03;;;6.13;;
58553;SDS011;48119;53.218;6.576;2023-07-28T08:25:56;6.63;;;5.40;;
58553;SDS011;48119;53.218;6.576;2023-07-28T08:28:24;8.50;;;6.60;;
58553;SDS011;48119;53.218;6.576;2023-07-28T08:30:56;6.88;;;5.88;;
58553;SDS011;48119;53.218;6.576;2023-07-28T08:33:24;9.32;;;5.60;;
58553;SDS011;48119;53.218;6.576;2023-07-28T08:35:50;5.90;;;5.30;;
58553;SDS011;48119;53.218;6.576;2023-07-28T08:38:16;6.95;;;5.95;;
58553;SDS011;48119;53.218;6.576;2023-07-28T08:40:45;9.13;;;5.75;;
58553;SDS011;48119;53.218;6.576;2023-07-28T08:43:14;7.97;;;6.10;;
58553;SDS011;48119;53.218;6.576;2023-07-28T08:45:40;6.80;;;6.20;;
58553;SDS011;48119;53.218;6.576;2023-07-28T08:48:24;7.55;;;5.47;;
58553;SDS011;48119;53.218;6.576;2023-07-28T08:50:50;6.95;;;5.95;;
58553;SDS011;48119;53.218;6.576;2023-07-28T08:53:17;8.15;;;5.90;;
58553;SDS011;48119;53.218;6.576;2023-07-28T08:55:43;6.38;;;5.75;;
58553;SDS011;48119;53.218;6.576;2023-07-28T08:58:16;7.70;;;6.30;;
58553;SDS011;48119;53.218;6.576;2023-07-28T09:00:44;6.50;;;5.20;;
58553;SDS011;48119;53.218;6.576;2023-07-28T09:03:14;6.75;;;5.50;;
58553;SDS011;48119;53.218;6.576;2023-07-28T09:05:40;7.15;;;4.85;;
58553;SDS011;48119;53.218;6.576;2023-07-28T09:08:07;7.18;;;5.00;;
58553;SDS011;48119;53.218;6.576;2023-07-28T09:10:54;5.90;;;4.40;;
58553;SDS011;48119;53.218;6.576;2023-07-28T09:13:22;5.75;;;4.57;;
58553;SDS011;48119;53.218;6.576;2023-07-28T09:15:49;5.65;;;4.68;;
58553;SDS011;48119;53.218;6.576;2023-07-28T09:18:15;5.53;;;4.25;;
58553;SDS011;48119;53.218;6.576;2023-07-28T09:20:42;6.63;;;4.60;;
58553;SDS011;48119;53.218;6.576;2023-07-28T09:23:08;5.80;;;4.05;;
58553;SDS011;48119;53.218;6.576;2023-07-28T09:25:35;7.07;;;3.78;;
58553;SDS011;48119;53.218;6.576;2023-07-28T09:28:02;4.70;;;4.20;;
58553;SDS011;48119;53.218;6.576;2023-07-28T09:33:14;4.18;;;3.35;;
58553;SDS011;48119;53.218;6.576;2023-07-28T09:35:54;3.80;;;3.30;;
58553;SDS011;48119;53.218;6.576;2023-07-28T09:38:20;4.13;;;3.65;;
58553;SDS011;48119;53.218;6.576;2023-07-28T09:40:48;7.15;;;3.95;;
58553;SDS011;48119;53.218;6.576;2023-07-28T09:43:16;4.30;;;3.90;;
58553;SDS011;48119;53.218;6.576;2023-07-28T09:45:42;7.43;;;3.55;;
58553;SDS011;48119;53.218;6.576;2023-07-28T09:48:10;3.90;;;3.13;;
58553;SDS011;48119;53.218;6.576;2023-07-28T09:50:37;3.65;;;2.97;;
58553;SDS011;48119;53.218;6.576;2023-07-28T09:53:05;5.68;;;3.55;;
58553;SDS011;48119;53.218;6.576;2023-07-28T09:55:36;6.47;;;4.03;;
58553;SDS011;48119;53.218;6.576;2023-07-28T09:58:05;4.55;;;2.90;;
58553;SDS011;48119;53.218;6.576;2023-07-28T10:00:34;4.45;;;3.10;;
58553;SDS011;48119;53.218;6.576;2023-07-28T10:03:00;3.33;;;3.03;;
58553;SDS011;48119;53.218;6.576;2023-07-28T10:05:28;4.20;;;2.83;;
58553;SDS011;48119;53.218;6.576;2023-07-28T10:07:54;4.18;;;3.30;;
58553;SDS011;48119;53.218;6.576;2023-07-28T10:10:22;3.25;;;2.95;;
58553;SDS011;48119;53.218;6.576;2023-07-28T10:12:49;5.50;;;3.50;;
58553;SDS011;48119;53.218;6.576;2023-07-28T10:15:16;6.07;;;3.35;;
58553;SDS011;48119;53.218;6.576;2023-07-28T10:17:53;4.10;;;3.47;;
58553;SDS011;48119;53.218;6.576;2023-07-28T10:23:20;4.03;;;3.25;;
58553;SDS011;48119;53.218;6.576;2023-07-28T10:25:56;4.97;;;4.10;;
58553;SDS011;48119;53.218;6.576;2023-07-28T10:31:10;3.88;;;3.25;;
58553;SDS011;48119;53.218;6.576;2023-07-28T10:33:40;3.92;;;3.30;;
58553;SDS011;48119;53.218;6.576;2023-07-28T10:38:43;5.15;;;3.58;;
58553;SDS011;48119;53.218;6.576;2023-07-28T10:41:10;5.35;;;3.78;;
58553;SDS011;48119;53.218;6.576;2023-07-28T10:43:40;4.40;;;3.42;;
58553;SDS011;48119;53.218;6.576;2023-07-28T10:46:09;4.72;;;2.80;;
58553;SDS011;48119;53.218;6.576;2023-07-28T10:48:44;4.32;;;2.50;;
58553;SDS011;48119;53.218;6.576;2023-07-28T10:51:12;3.33;;;2.95;;
58553;SDS011;48119;53.218;6.576;2023-07-28T10:53:44;6.03;;;2.55;;
58553;SDS011;48119;53.218;6.576;2023-07-28T10:56:10;2.55;;;2.28;;
58553;SDS011;48119;53.218;6.576;2023-07-28T10:58:36;6.10;;;2.70;;
58553;SDS011;48119;53.218;6.576;2023-07-28T11:01:02;4.13;;;2.78;;
58553;SDS011;48119;53.218;6.576;2023-07-28T11:03:28;4.38;;;2.70;;
58553;SDS011;48119;53.218;6.576;2023-07-28T11:05:54;5.65;;;2.60;;
58553;SDS011;48119;53.218;6.576;2023-07-28T11:08:21;3.20;;;2.80;;
58553;SDS011;48119;53.218;6.576;2023-07-28T11:10:47;6.28;;;2.58;;
58553;SDS011;48119;53.218;6.576;2023-07-28T11:13:13;4.78;;;3.08;;
58553;SDS011;48119;53.218;6.576;2023-07-28T11:15:39;5.72;;;3.13;;
58553;SDS011;48119;53.218;6.576;2023-07-28T11:18:08;6.32;;;3.30;;
58553;SDS011;48119;53.218;6.576;2023-07-28T11:20:40;4.82;;;2.67;;
58553;SDS011;48119;53.218;6.576;2023-07-28T11:23:07;3.20;;;2.20;;
58553;SDS011;48119;53.218;6.576;2023-07-28T11:25:33;5.05;;;2.60;;
58553;SDS011;48119;53.218;6.576;2023-07-28T11:28:01;4.45;;;2.85;;
58553;SDS011;48119;53.218;6.576;2023-07-28T11:30:31;3.45;;;2.30;;
58553;SDS011;48119;53.218;6.576;2023-07-28T11:32:58;3.72;;;2.35;;
58553;SDS011;48119;53.218;6.576;2023-07-28T11:35:24;3.15;;;2.30;;
58553;SDS011;48119;53.218;6.576;2023-07-28T11:37:50;3.25;;;2.30;;
58553;SDS011;48119;53.218;6.576;2023-07-28T11:40:19;3.83;;;2.35;;
58553;SDS011;48119;53.218;6.576;2023-07-28T11:45:19;3.92;;;1.90;;
58553;SDS011;48119;53.218;6.576;2023-07-28T11:48:00;3.95;;;2.17;;
58553;SDS011;48119;53.218;6.576;2023-07-28T11:50:34;3.85;;;2.75;;
58553;SDS011;48119;53.218;6.576;2023-07-28T11:53:03;5.57;;;3.40;;
58553;SDS011;48119;53.218;6.576;2023-07-28T11:55:29;4.18;;;2.58;;
58553;SDS011;48119;53.218;6.576;2023-07-28T11:57:55;2.60;;;2.22;;
58553;SDS011;48119;53.218;6.576;2023-07-28T12:00:24;4.63;;;2.35;;
58553;SDS011;48119;53.218;6.576;2023-07-28T12:03:02;2.63;;;2.00;;
58553;SDS011;48119;53.218;6.576;2023-07-28T12:05:36;4.60;;;2.15;;
58553;SDS011;48119;53.218;6.576;2023-07-28T12:08:36;6.22;;;3.63;;
58553;SDS011;48119;53.218;6.576;2023-07-28T12:11:02;4.93;;;2.97;;
58553;SDS011;48119;53.218;6.576;2023-07-28T12:13:28;3.03;;;2.22;;
58553;SDS011;48119;53.218;6.576;2023-07-28T12:15:54;3.13;;;2.13;;
58553;SDS011;48119;53.218;6.576;2023-07-28T12:18:20;3.45;;;2.35;;
58553;SDS011;48119;53.218;6.576;2023-07-28T12:20:54;4.10;;;2.25;;
58553;SDS011;48119;53.218;6.576;2023-07-28T12:23:21;8.15;;;4.85;;
58553;SDS011;48119;53.218;6.576;2023-07-28T12:25:48;8.73;;;4.80;;
58553;SDS011;48119;53.218;6.576;2023-07-28T12:28:15;14.05;;;7.20;;
58553;SDS011;48119;53.218;6.576;2023-07-28T12:30:41;10.52;;;6.20;;
58553;SDS011;48119;53.218;6.576;2023-07-28T12:33:16;4.60;;;2.55;;
58553;SDS011;48119;53.218;6.576;2023-07-28T12:35:42;7.53;;;3.50;;
58553;SDS011;48119;53.218;6.576;2023-07-28T12:38:08;4.38;;;2.42;;
58553;SDS011;48119;53.218;6.576;2023-07-28T12:40:33;3.08;;;2.20;;
58553;SDS011;48119;53.218;6.576;2023-07-28T12:43:00;2.28;;;1.30;;
58553;SDS011;48119;53.218;6.576;2023-07-28T12:45:27;4.13;;;2.60;;
58553;SDS011;48119;53.218;6.576;2023-07-28T12:47:53;2.70;;;1.65;;
58553;SDS011;48119;53.218;6.576;2023-07-28T12:50:20;4.10;;;2.17;;
58553;SDS011;48119;53.218;6.576;2023-07-28T12:52:50;4.53;;;2.58;;
58553;SDS011;48119;53.218;6.576;2023-07-28T12:55:17;3.30;;;1.67;;
58553;SDS011;48119;53.218;6.576;2023-07-28T12:57:46;2.65;;;1.88;;
58553;SDS011;48119;53.218;6.576;2023-07-28T13:00:13;2.45;;;1.52;;
58553;SDS011;48119;53.218;6.576;2023-07-28T13:02:41;3.67;;;2.17;;
58553;SDS011;48119;53.218;6.576;2023-07-28T13:05:11;5.70;;;4.30;;
58553;SDS011;48119;53.218;6.576;2023-07-28T13:07:39;5.53;;;3.05;;
58553;SDS011;48119;53.218;6.576;2023-07-28T13:10:06;5.10;;;3.10;;
58553;SDS011;48119;53.218;6.576;2023-07-28T13:12:35;3.17;;;2.17;;
58553;SDS011;48119;53.218;6.576;2023-07-28T13:15:01;3.17;;;1.48;;
58553;SDS011;48119;53.218;6.576;2023-07-28T13:17:27;2.13;;;1.20;;
58553;SDS011;48119;53.218;6.576;2023-07-28T13:19:55;2.63;;;1.35;;
58553;SDS011;48119;53.218;6.576;2023-07-28T13:22:24;2.55;;;1.33;;
58553;SDS011;48119;53.218;6.576;2023-07-28T13:24:51;6.53;;;2.28;;
58553;SDS011;48119;53.218;6.576;2023-07-28T13:27:17;3.88;;;1.80;;
58553;SDS011;48119;53.218;6.576;2023-07-28T13:29:43;3.97;;;1.52;;
58553;SDS011;48119;53.218;6.576;2023-07-28T13:32:16;5.43;;;1.98;;
58553;SDS011;48119;53.218;6.576;2023-07-28T13:34:49;2.72;;;1.45;;
58553;SDS011;48119;53.218;6.576;2023-07-28T13:37:15;2.30;;;1.58;;
58553;SDS011;48119;53.218;6.576;2023-07-28T13:39:41;4.22;;;1.92;;
58553;SDS011;48119;53.218;6.576;2023-07-28T13:42:07;5.30;;;2.95;;
58553;SDS011;48119;53.218;6.576;2023-07-28T13:44:33;3.13;;;2.08;;
58553;SDS011;48119;53.218;6.576;2023-07-28T13:46:59;4.22;;;2.30;;
58553;SDS011;48119;53.218;6.576;2023-07-28T13:49:25;6.38;;;2.95;;
58553;SDS011;48119;53.218;6.576;2023-07-28T13:51:51;5.22;;;2.55;;
58553;SDS011;48119;53.218;6.576;2023-07-28T13:54:17;3.85;;;2.63;;
58553;SDS011;48119;53.218;6.576;2023-07-28T13:56:43;3.15;;;2.05;;
58553;SDS011;48119;53.218;6.576;2023-07-28T13:59:12;3.38;;;2.10;;
58553;SDS011;48119;53.218;6.576;2023-07-28T14:01:37;4.03;;;2.35;;
58553;SDS011;48119;53.218;6.576;2023-07-28T14:04:03;3.95;;;2.30;;
58553;SDS011;48119;53.218;6.576;2023-07-28T14:06:32;3.85;;;2.20;;
58553;SDS011;48119;53.218;6.576;2023-07-28T14:08:57;5.10;;;2.53;;
58553;SDS011;48119;53.218;6.576;2023-07-28T14:11:23;7.10;;;2.40;;
58553;SDS011;48119;53.218;6.576;2023-07-28T14:13:49;3.35;;;2.28;;
58553;SDS011;48119;53.218;6.576;2023-07-28T14:16:15;5.45;;;2.78;;
58553;SDS011;48119;53.218;6.576;2023-07-28T14:18:43;3.25;;;2.60;;
58553;SDS011;48119;53.218;6.576;2023-07-28T14:21:12;4.57;;;2.40;;
58553;SDS011;48119;53.218;6.576;2023-07-28T14:23:38;3.78;;;2.30;;
58553;SDS011;48119;53.218;6.576;2023-07-28T14:26:04;5.97;;;2.75;;
58553;SDS011;48119;53.218;6.576;2023-07-28T14:28:30;4.70;;;2.90;;
58553;SDS011;48119;53.218;6.576;2023-07-28T14:30:56;4.05;;;2.63;;
58553;SDS011;48119;53.218;6.576;2023-07-28T14:33:25;3.10;;;2.60;;
58553;SDS011;48119;53.218;6.576;2023-07-28T14:35:51;7.72;;;2.70;;
58553;SDS011;48119;53.218;6.576;2023-07-28T14:38:18;5.65;;;3.00;;
58553;SDS011;48119;53.218;6.576;2023-07-28T14:40:44;4.90;;;2.50;;
58553;SDS011;48119;53.218;6.576;2023-07-28T14:43:14;5.10;;;3.80;;
58553;SDS011;48119;53.218;6.576;2023-07-28T14:45:41;3.83;;;3.22;;
58553;SDS011;48119;53.218;6.576;2023-07-28T14:48:07;4.35;;;3.25;;
58553;SDS011;48119;53.218;6.576;2023-07-28T14:50:32;8.13;;;3.28;;
58553;SDS011;48119;53.218;6.576;2023-07-28T14:52:58;3.63;;;2.72;;